Time;durP1;ratioP1;P1;durP2;ratioP2;P2;SDS_P1;SDS_P2;PMS_P1;PMS_P2;Temp;Humidity;BMP_temperature;BMP_pressure;BME280_temperature;BME280_humidity;BME280_pressure;Samples;Min_cycle;Max_cycle;Signal;HPM_P1;HPM_P2
2021/06/18 00:01:35;;;;;;;0.50;0.30;;;24.20;99.90;;;;;;5014401;28;20451;-79
2021/06/18 00:04:02;;;;;;;0.50;0.30;;;24.20;99.90;;;;;;5013971;28;20984;-78
2021/06/18 00:06:28;;;;;;;0.50;0.30;;;24.20;99.90;;;;;;5013548;28;20446;-78
2021/06/18 00:08:55;;;;;;;1.47;1.37;;;24.10;99.90;;;;;;5013962;28;20454;-76
2021/06/18 00:11:22;;;;;;;0.50;0.30;;;24.10;99.90;;;;;;5013519;28;20446;-79
2021/06/18 00:13:48;;;;;;;0.50;0.30;;;24.10;99.90;;;;;;5020344;28;20462;-77
2021/06/18 00:16:16;;;;;;;0.50;0.40;;;24.10;99.90;;;;;;5023467;28;20456;-79
2021/06/18 00:18:43;;;;;;;0.50;0.30;;;24.00;99.90;;;;;;5013303;28;20813;-79
2021/06/18 00:21:10;;;;;;;0.50;0.40;;;24.00;99.90;;;;;;5013962;28;20454;-79
2021/06/18 00:23:37;;;;;;;0.50;0.30;;;24.00;99.90;;;;;;5013332;28;20486;-78
2021/06/18 00:26:03;;;;;;;0.50;0.30;;;23.90;99.90;;;;;;5013544;28;20442;-78
2021/06/18 00:28:30;;;;;;;0.50;0.30;;;24.00;99.90;;;;;;5013402;28;20435;-78
2021/06/18 00:31:00;;;;;;;0.50;0.30;;;23.90;99.90;;;;;;5013269;28;20896;-76
2021/06/18 00:33:30;;;;;;;0.50;0.30;;;23.90;99.90;;;;;;5013243;28;20463;-78
2021/06/18 00:35:56;;;;;;;0.50;0.30;;;23.90;99.90;;;;;;5013648;28;20442;-78
2021/06/18 00:38:23;;;;;;;0.50;0.30;;;23.90;99.90;;;;;;5012870;28;20439;-82
2021/06/18 00:40:50;;;;;;;0.50;0.30;;;23.80;99.90;;;;;;5013387;28;20817;-79
2021/06/18 00:43:17;;;;;;;0.50;0.30;;;23.80;99.90;;;;;;5014681;28;20501;-78
2021/06/18 00:45:43;;;;;;;0.50;0.30;;;23.80;99.90;;;;;;5027606;28;20842;-78
2021/06/18 00:48:11;;;;;;;0.50;0.30;;;23.70;99.90;;;;;;5013068;28;20797;-79
2021/06/18 00:50:40;;;;;;;0.50;0.30;;;23.70;99.90;;;;;;5013094;28;20442;-78
2021/06/18 00:53:07;;;;;;;0.50;0.30;;;23.70;99.90;;;;;;5012692;28;21010;-78
2021/06/18 00:55:34;;;;;;;0.50;0.30;;;23.70;99.90;;;;;;5013202;28;20438;-78
2021/06/18 00:58:02;;;;;;;0.50;0.30;;;23.70;99.90;;;;;;5012684;28;20443;-79
2021/06/18 01:00:29;;;;;;;0.50;0.30;;;23.70;99.90;;;;;;5013107;28;20451;-79
2021/06/18 01:02:55;;;;;;;0.70;0.60;;;23.70;99.90;;;;;;5012973;28;20439;-78
2021/06/18 01:05:23;;;;;;;0.50;0.30;;;23.70;99.90;;;;;;5012978;28;20837;-78
2021/06/18 01:08:02;;;;;;;0.57;0.47;;;23.70;99.90;;;;;;5012426;28;20448;-79
2021/06/18 01:10:38;;;;;;;0.50;0.30;;;23.60;99.90;;;;;;5012861;28;20987;-79
2021/06/18 01:13:14;;;;;;;1.60;1.50;;;23.60;99.90;;;;;;5013339;28;20440;-79
2021/06/18 01:15:51;;;;;;;0.50;0.30;;;23.60;99.90;;;;;;5026763;28;20792;-78
2021/06/18 01:18:24;;;;;;;0.50;0.40;;;23.50;99.90;;;;;;5012104;28;20944;-80
2021/06/18 01:21:03;;;;;;;1.07;0.60;;;23.50;99.90;;;;;;5012946;28;20450;-79
2021/06/18 01:23:49;;;;;;;0.50;0.30;;;23.50;99.90;;;;;;5012629;28;20458;-78
2021/06/18 01:26:43;;;;;;;0.50;0.40;;;23.40;99.90;;;;;;5012486;28;20438;-79
2021/06/18 01:29:12;;;;;;;0.50;0.37;;;23.40;99.90;;;;;;5008798;28;20450;-79
2021/06/18 01:31:41;;;;;;;0.50;0.30;;;23.30;99.90;;;;;;5012699;28;20462;-78
2021/06/18 01:34:13;;;;;;;1.53;1.43;;;23.30;99.90;;;;;;5012859;28;20466;-78
2021/06/18 01:36:44;;;;;;;0.87;0.87;;;23.30;99.90;;;;;;5012320;28;20423;-78
2021/06/18 01:39:12;;;;;;;1.20;1.10;;;23.30;99.90;;;;;;5012575;28;20438;-79
2021/06/18 01:41:41;;;;;;;1.33;1.23;;;23.20;99.90;;;;;;5012792;28;20447;-78
2021/06/18 01:44:10;;;;;;;0.50;0.40;;;23.20;99.90;;;;;;5023265;28;20484;-78
2021/06/18 01:46:38;;;;;;;0.50;0.33;;;23.20;99.90;;;;;;5022782;28;20446;-77
2021/06/18 01:49:08;;;;;;;3.80;0.93;;;23.20;99.90;;;;;;5016494;28;20439;-78
2021/06/18 01:51:36;;;;;;;1.27;1.17;;;23.20;99.90;;;;;;5016094;28;20517;-78
2021/06/18 01:54:04;;;;;;;0.93;0.93;;;23.10;99.90;;;;;;5016303;28;20467;-78
2021/06/18 01:56:33;;;;;;;1.73;1.63;;;23.10;99.90;;;;;;5015747;28;20446;-80
2021/06/18 01:59:02;;;;;;;1.17;1.17;;;23.10;99.90;;;;;;5016052;28;20438;-78
2021/06/18 02:01:34;;;;;;;0.50;0.30;;;23.10;99.90;;;;;;5015533;28;20805;-80
2021/06/18 02:04:03;;;;;;;3.17;2.40;;;23.10;99.90;;;;;;5016793;28;20532;-78
2021/06/18 02:06:31;;;;;;;0.60;0.50;;;23.10;99.90;;;;;;5015665;28;20804;-78
2021/06/18 02:09:00;;;;;;;0.60;0.60;;;23.10;99.90;;;;;;5015804;28;20439;-77
2021/06/18 02:11:29;;;;;;;2.40;1.30;;;23.00;99.90;;;;;;5015280;28;20443;-79
2021/06/18 02:13:57;;;;;;;0.50;0.40;;;23.00;99.90;;;;;;5023065;28;20466;-79
2021/06/18 02:16:26;;;;;;;1.03;0.60;;;22.90;99.90;;;;;;5024373;28;20436;-78
2021/06/18 02:18:55;;;;;;;4.93;2.20;;;22.90;99.90;;;;;;5016005;28;20443;-78
2021/06/18 02:21:24;;;;;;;0.53;0.47;;;22.90;99.90;;;;;;5015174;28;20459;-78
2021/06/18 02:23:52;;;;;;;0.50;0.40;;;22.90;99.90;;;;;;5015848;28;20463;-77
2021/06/18 02:26:21;;;;;;;3.07;2.87;;;22.90;99.90;;;;;;5015284;28;20444;-79
2021/06/18 02:28:47;;;;;;;1.67;1.57;;;22.90;99.90;;;;;;5015386;28;20492;-78
2021/06/18 02:31:15;;;;;;;0.80;0.80;;;22.80;99.90;;;;;;5015704;28;20446;-78
2021/06/18 02:33:43;;;;;;;1.90;1.80;;;22.80;99.90;;;;;;5015599;28;20463;-79
2021/06/18 02:36:11;;;;;;;0.50;0.40;;;22.80;99.90;;;;;;5015837;28;20441;-79
2021/06/18 02:38:38;;;;;;;0.53;0.47;;;22.80;99.90;;;;;;5015567;28;20439;-78
2021/06/18 02:41:05;;;;;;;0.60;0.60;;;22.80;99.90;;;;;;5015798;28;20445;-78
2021/06/18 02:43:32;;;;;;;0.63;0.60;;;22.80;99.90;;;;;;5019212;28;20473;-79
2021/06/18 02:45:58;;;;;;;0.50;0.40;;;22.70;99.90;;;;;;5070892;22;20500;-81
2021/06/18 02:48:30;;;;;;;2.60;2.40;;;22.70;99.90;;;;;;5042913;28;20437;-82
2021/06/18 02:51:03;;;;;;;0.50;0.30;;;22.70;99.90;;;;;;5060204;28;20502;-82
2021/06/18 02:53:39;;;;;;;0.97;0.97;;;22.70;99.90;;;;;;5059930;28;20425;-82
2021/06/18 02:56:13;;;;;;;0.50;0.40;;;22.70;99.90;;;;;;5043549;28;20468;-82
2021/06/18 02:58:43;;;;;;;0.50;0.30;;;22.70;99.90;;;;;;5047348;28;20418;-81
2021/06/18 03:01:10;;;;;;;0.87;0.80;;;22.70;99.90;;;;;;5046618;28;20437;-80
2021/06/18 03:03:42;;;;;;;1.03;1.03;;;22.70;99.90;;;;;;5047368;28;20437;-81
2021/06/18 03:06:09;;;;;;;14.73;1.53;;;22.70;99.90;;;;;;5047397;28;20850;-80
2021/06/18 03:08:41;;;;;;;0.70;0.63;;;22.70;99.90;;;;;;5046342;28;20434;-77
2021/06/18 03:11:10;;;;;;;1.07;1.07;;;22.70;99.90;;;;;;5047356;28;20473;-82
2021/06/18 03:13:40;;;;;;;0.50;0.40;;;22.70;99.90;;;;;;5047330;28;20443;-80
2021/06/18 03:16:09;;;;;;;0.50;0.40;;;22.60;99.90;;;;;;5057234;28;20457;-82
2021/06/18 03:18:38;;;;;;;0.50;0.30;;;22.60;99.90;;;;;;5066188;28;20435;-78
2021/06/18 03:21:05;;;;;;;0.50;0.30;;;22.70;99.90;;;;;;5066884;28;20438;-82
2021/06/18 03:23:33;;;;;;;1.47;1.37;;;22.70;99.90;;;;;;5066922;28;20440;-82
2021/06/18 03:26:04;;;;;;;0.50;0.30;;;22.70;99.90;;;;;;5067039;28;20484;-81
2021/06/18 03:28:32;;;;;;;0.47;0.30;;;22.70;99.90;;;;;;5065523;28;20442;-81
2021/06/18 03:31:00;;;;;;;0.50;0.30;;;22.70;99.90;;;;;;5065746;28;20441;-82
2021/06/18 03:33:29;;;;;;;0.50;0.30;;;22.60;99.90;;;;;;5067523;28;20464;-81
2021/06/18 03:35:57;;;;;;;0.50;0.30;;;22.70;99.90;;;;;;5066767;28;20456;-82
2021/06/18 03:38:24;;;;;;;0.50;0.30;;;22.60;99.90;;;;;;5066352;28;20437;-79
2021/06/18 03:40:51;;;;;;;0.60;0.50;;;22.60;99.90;;;;;;5065726;28;20444;-81
2021/06/18 03:43:20;;;;;;;0.50;0.30;;;22.60;99.90;;;;;;5065964;28;20433;-80
2021/06/18 03:45:50;;;;;;;0.50;0.30;;;22.70;99.90;;;;;;5060498;28;20832;-81
2021/06/18 03:48:19;;;;;;;0.50;0.30;;;22.70;99.90;;;;;;5061520;28;20443;-79
2021/06/18 03:50:45;;;;;;;0.50;0.30;;;22.70;99.90;;;;;;5061216;28;20452;-80
2021/06/18 03:53:14;;;;;;;0.77;0.77;;;22.60;99.90;;;;;;5061449;28;20448;-80
2021/06/18 03:55:41;;;;;;;0.50;0.30;;;22.70;99.90;;;;;;5061736;28;20461;-79
2021/06/18 03:58:11;;;;;;;0.50;0.30;;;22.70;99.90;;;;;;5059575;28;20445;-81
2021/06/18 04:00:43;;;;;;;0.50;0.30;;;22.80;99.90;;;;;;5060693;28;20443;-79
2021/06/18 04:03:11;;;;;;;3.40;3.20;;;22.80;99.90;;;;;;5061510;28;20445;-80
2021/06/18 04:05:40;;;;;;;0.50;0.40;;;22.80;99.90;;;;;;5059894;28;20481;-79
2021/06/18 04:08:07;;;;;;;0.50;0.30;;;22.80;99.90;;;;;;5061298;28;20532;-80
2021/06/18 04:10:34;;;;;;;0.50;0.30;;;22.80;99.90;;;;;;5060214;28;20443;-79
2021/06/18 04:13:02;;;;;;;1.23;1.13;;;22.80;99.90;;;;;;5060367;28;20441;-81
2021/06/18 04:15:29;;;;;;;1.23;1.13;;;22.80;99.90;;;;;;5060310;28;20477;-81
2021/06/18 04:17:59;;;;;;;2.87;1.37;;;22.80;99.90;;;;;;5060194;28;20425;-80
2021/06/18 04:20:27;;;;;;;0.50;0.40;;;22.90;99.90;;;;;;5061006;28;20505;-79
2021/06/18 04:22:54;;;;;;;0.90;0.90;;;22.90;99.90;;;;;;5060452;28;20479;-79
2021/06/18 04:25:22;;;;;;;0.50;0.30;;;22.90;99.90;;;;;;5060716;28;20476;-79
2021/06/18 04:27:49;;;;;;;0.50;0.30;;;22.90;99.90;;;;;;5061244;28;20802;-79
2021/06/18 04:30:17;;;;;;;0.50;0.30;;;22.90;99.90;;;;;;5061134;28;20439;-80
2021/06/18 04:32:44;;;;;;;0.50;0.30;;;22.90;99.90;;;;;;5060873;28;21191;-79
2021/06/18 04:35:13;;;;;;;0.60;0.60;;;23.00;99.90;;;;;;5060730;28;20857;-79
2021/06/18 04:37:41;;;;;;;1.27;1.27;;;23.00;99.90;;;;;;5060496;28;20452;-79
2021/06/18 04:40:09;;;;;;;2.20;2.10;;;23.00;99.90;;;;;;5060501;28;20467;-79
2021/06/18 04:42:36;;;;;;;0.90;0.90;;;23.00;99.90;;;;;;5062775;28;20791;-79
2021/06/18 04:45:04;;;;;;;0.70;0.70;;;22.90;99.90;;;;;;5059223;28;20492;-80
2021/06/18 04:47:31;;;;;;;4.93;2.10;;;22.90;99.90;;;;;;5050292;28;20943;-80
2021/06/18 04:49:58;;;;;;;0.87;0.87;;;22.90;99.90;;;;;;5058393;28;20439;-79
2021/06/18 04:52:26;;;;;;;1.80;1.70;;;22.90;99.90;;;;;;5065230;28;20433;-82
2021/06/18 04:54:55;;;;;;;0.50;0.40;;;22.90;99.90;;;;;;5062229;28;20453;-79
2021/06/18 04:57:22;;;;;;;2.00;1.23;;;23.00;99.90;;;;;;5060057;28;20437;-81
2021/06/18 04:59:49;;;;;;;1.97;1.87;;;23.00;99.90;;;;;;5060959;28;20482;-79
2021/06/18 05:02:16;;;;;;;1.13;1.13;;;23.00;99.90;;;;;;5042417;28;20434;-81
2021/06/18 05:04:42;;;;;;;3.97;3.57;;;22.90;99.90;;;;;;5043951;28;20434;-80
2021/06/18 05:07:09;;;;;;;1.00;1.00;;;23.00;99.90;;;;;;5043473;28;20445;-81
2021/06/18 05:09:37;;;;;;;2.90;2.07;;;23.00;99.90;;;;;;5043666;28;20449;-81
2021/06/18 05:12:05;;;;;;;2.40;2.20;;;23.00;99.90;;;;;;5042960;28;20441;-80
2021/06/18 05:14:31;;;;;;;0.50;0.50;;;23.10;99.90;;;;;;5043568;28;20441;-77
2021/06/18 05:16:58;;;;;;;1.17;1.10;;;23.10;99.90;;;;;;5061050;28;20473;-80
2021/06/18 05:19:25;;;;;;;0.80;0.80;;;23.20;99.90;;;;;;5064054;28;20444;-80
2021/06/18 05:21:51;;;;;;;1.83;1.67;;;23.30;99.90;;;;;;5064262;28;20437;-81
2021/06/18 05:24:18;;;;;;;0.50;0.43;;;23.30;99.90;;;;;;5063571;28;20462;-81
2021/06/18 05:26:46;;;;;;;1.10;1.10;;;23.40;99.90;;;;;;5062752;28;20484;-81
2021/06/18 05:29:13;;;;;;;0.50;0.40;;;23.50;99.90;;;;;;5064449;28;20630;-81
2021/06/18 05:31:40;;;;;;;2.50;2.17;;;23.60;99.90;;;;;;5062482;28;20441;-81
2021/06/18 05:34:06;;;;;;;1.83;1.73;;;23.70;99.90;;;;;;5061840;28;20444;-80
2021/06/18 05:36:33;;;;;;;0.50;0.40;;;23.80;99.90;;;;;;5062695;28;20467;-81
2021/06/18 05:39:00;;;;;;;0.50;0.30;;;23.90;99.90;;;;;;5062637;28;20445;-80
2021/06/18 05:41:27;;;;;;;0.50;0.30;;;24.00;99.90;;;;;;5064218;28;20838;-83
2021/06/18 05:43:55;;;;;;;1.00;0.80;;;24.20;99.90;;;;;;5063049;28;20519;-82
2021/06/18 05:46:21;;;;;;;0.50;0.43;;;24.20;99.90;;;;;;5061556;28;20496;-81
2021/06/18 05:48:48;;;;;;;2.27;2.07;;;24.30;99.90;;;;;;5061793;28;20433;-80
2021/06/18 05:51:15;;;;;;;0.50;0.30;;;24.40;99.90;;;;;;5060842;28;20441;-82
2021/06/18 05:53:41;;;;;;;2.00;1.90;;;24.30;99.90;;;;;;5057453;28;20449;-81
2021/06/18 05:56:08;;;;;;;7.03;1.17;;;24.40;99.90;;;;;;5057055;28;20453;-82
2021/06/18 05:58:35;;;;;;;0.50;0.40;;;24.40;99.90;;;;;;5055728;28;20464;-82
2021/06/18 06:01:03;;;;;;;0.50;0.40;;;24.50;99.90;;;;;;5056859;28;20445;-84
2021/06/18 06:03:30;;;;;;;0.50;0.30;;;24.70;99.90;;;;;;5057272;28;20814;-82
2021/06/18 06:05:56;;;;;;;0.50;0.30;;;24.90;99.90;;;;;;5057392;28;20480;-83
2021/06/18 06:08:23;;;;;;;0.50;0.30;;;25.10;99.90;;;;;;5056825;28;20467;-82
2021/06/18 06:10:50;;;;;;;0.50;0.30;;;25.30;99.90;;;;;;5055902;28;20447;-85
2021/06/18 06:13:19;;;;;;;0.50;0.30;;;25.50;99.90;;;;;;5056985;28;21024;-82
2021/06/18 06:15:46;;;;;;;0.50;0.30;;;25.70;99.90;;;;;;5056712;28;20457;-84
2021/06/18 06:18:15;;;;;;;0.50;0.33;;;25.90;99.90;;;;;;5056470;28;20437;-82
2021/06/18 06:20:41;;;;;;;1.37;1.00;;;26.10;99.90;;;;;;5056927;28;20810;-81
2021/06/18 06:23:09;;;;;;;0.50;0.30;;;26.20;99.90;;;;;;5057050;28;20538;-82
2021/06/18 06:25:35;;;;;;;0.50;0.30;;;26.30;99.90;;;;;;5057857;28;20479;-83
2021/06/18 06:28:02;;;;;;;1.90;1.80;;;26.50;99.90;;;;;;5057902;28;20436;-82
2021/06/18 06:30:29;;;;;;;0.50;0.30;;;26.60;99.90;;;;;;5059556;28;20943;-82
2021/06/18 06:32:56;;;;;;;0.50;0.40;;;26.80;99.90;;;;;;5060279;28;20433;-84
2021/06/18 06:35:25;;;;;;;0.50;0.30;;;26.90;99.90;;;;;;5059852;28;20996;-81
2021/06/18 06:37:51;;;;;;;0.67;0.60;;;27.00;99.90;;;;;;5059026;28;20441;-82
2021/06/18 06:40:20;;;;;;;0.50;0.30;;;26.90;99.90;;;;;;5059433;28;20436;-83
2021/06/18 06:42:47;;;;;;;0.50;0.30;;;26.90;99.90;;;;;;5061227;28;20441;-81
2021/06/18 06:45:14;;;;;;;0.53;0.43;;;27.30;99.90;;;;;;5060196;28;20472;-82
2021/06/18 06:47:41;;;;;;;0.50;0.30;;;27.60;99.90;;;;;;5058901;28;20437;-82
2021/06/18 06:50:09;;;;;;;0.60;0.33;;;27.90;99.90;;;;;;5059899;28;20441;-82
2021/06/18 06:52:37;;;;;;;0.50;0.30;;;28.10;99.90;;;;;;5058757;28;20433;-79
2021/06/18 06:55:05;;;;;;;0.50;0.30;;;28.60;99.90;;;;;;5059688;28;20465;-83
2021/06/18 06:57:31;;;;;;;0.50;0.30;;;29.60;99.90;;;;;;5059927;28;20961;-83
2021/06/18 06:59:58;;;;;;;0.50;0.30;;;30.70;99.90;;;;;;5059526;28;20502;-81
2021/06/18 07:02:25;;;;;;;0.50;0.30;;;31.60;99.90;;;;;;5058285;28;20449;-80
2021/06/18 07:04:52;;;;;;;0.50;0.30;;;32.10;99.90;;;;;;5060270;28;20469;-83
2021/06/18 07:07:18;;;;;;;0.50;0.30;;;32.00;99.90;;;;;;5059156;28;20481;-83
2021/06/18 07:09:46;;;;;;;0.50;0.30;;;31.60;99.90;;;;;;5060437;28;20799;-83
2021/06/18 07:12:13;;;;;;;0.43;0.30;;;31.30;99.90;;;;;;5059261;28;20649;-82
2021/06/18 07:14:40;;;;;;;0.50;0.40;;;31.30;99.90;;;;;;5058858;28;20460;-80
2021/06/18 07:17:07;;;;;;;1.07;1.03;;;31.50;99.90;;;;;;5058216;28;20448;-81
2021/06/18 07:19:34;;;;;;;1.73;1.63;;;31.40;99.90;;;;;;5059515;28;20436;-82
2021/06/18 07:22:02;;;;;;;0.50;0.30;;;31.10;99.90;;;;;;5060214;28;20448;-81
2021/06/18 07:24:29;;;;;;;0.50;0.40;;;30.50;99.90;;;;;;5061077;28;20433;-81
2021/06/18 07:26:57;;;;;;;0.50;0.50;;;30.50;99.90;;;;;;5049144;28;20968;-82
2021/06/18 07:29:25;;;;;;;0.50;0.30;;;30.20;99.90;;;;;;5053892;28;20448;-82
2021/06/18 07:31:52;;;;;;;0.50;0.30;;;30.00;99.90;;;;;;5059524;28;20748;-83
2021/06/18 07:34:19;;;;;;;0.50;0.30;;;29.90;99.90;;;;;;5059313;28;20540;-80
2021/06/18 07:36:46;;;;;;;0.50;0.30;;;29.80;99.90;;;;;;5057476;28;20449;-79
2021/06/18 07:39:14;;;;;;;0.50;0.30;;;29.80;99.90;;;;;;5057500;28;20445;-80
2021/06/18 07:41:41;;;;;;;0.50;0.30;;;29.80;99.90;;;;;;5048382;28;20891;-81
2021/06/18 07:44:09;;;;;;;0.50;0.30;;;30.00;99.90;;;;;;5054894;28;20437;-81
2021/06/18 07:46:36;;;;;;;0.50;0.30;;;30.10;99.90;;;;;;5057622;28;20481;-78
2021/06/18 07:49:03;;;;;;;0.63;0.57;;;30.20;99.90;;;;;;5057907;28;20476;-80
2021/06/18 07:51:30;;;;;;;0.50;0.30;;;30.10;99.90;;;;;;5054865;28;20445;-81
2021/06/18 07:53:57;;;;;;;0.50;0.30;;;30.10;99.90;;;;;;5057799;28;20441;-81
2021/06/18 07:56:25;;;;;;;1.17;1.07;;;30.00;99.90;;;;;;5058366;28;20457;-80
2021/06/18 07:58:52;;;;;;;0.50;0.30;;;30.00;99.90;;;;;;5058228;28;20443;-82
2021/06/18 08:01:21;;;;;;;0.50;0.40;;;29.90;99.90;;;;;;5058166;28;20440;-81
2021/06/18 08:03:48;;;;;;;0.50;0.30;;;30.10;99.90;;;;;;5058195;28;20521;-79
2021/06/18 08:06:16;;;;;;;0.50;0.30;;;30.10;99.90;;;;;;5055869;28;20469;-80
2021/06/18 08:08:43;;;;;;;0.50;0.30;;;30.20;99.90;;;;;;5056064;28;20437;-81
2021/06/18 08:11:10;;;;;;;0.50;0.30;;;30.50;99.90;;;;;;5056211;28;20437;-80
2021/06/18 08:13:37;;;;;;;0.50;0.30;;;30.60;99.90;;;;;;5056656;28;20446;-79
2021/06/18 08:16:04;;;;;;;0.50;0.30;;;30.80;99.90;;;;;;5056273;28;20457;-82
2021/06/18 08:18:35;;;;;;;0.50;0.30;;;31.00;99.90;;;;;;5057234;28;20489;-81
2021/06/18 08:21:02;;;;;;;1.13;0.87;;;31.50;99.90;;;;;;5057665;28;20437;-81
2021/06/18 08:23:29;;;;;;;0.50;0.30;;;31.80;99.90;;;;;;5058238;28;20429;-82
2021/06/18 08:25:55;;;;;;;0.60;0.57;;;31.70;99.90;;;;;;5058876;28;20480;-82
2021/06/18 08:28:22;;;;;;;0.40;0.30;;;31.90;99.90;;;;;;5057309;28;20441;-81
2021/06/18 08:30:49;;;;;;;0.40;0.30;;;32.20;99.90;;;;;;5056965;28;20452;-80
2021/06/18 08:33:16;;;;;;;0.50;0.30;;;32.30;99.90;;;;;;5058149;28;20437;-80
2021/06/18 08:35:44;;;;;;;0.50;0.30;;;32.30;99.90;;;;;;5057657;28;20456;-81
2021/06/18 08:38:10;;;;;;;0.50;0.30;;;32.30;99.90;;;;;;5058097;28;20437;-80
2021/06/18 08:40:37;;;;;;;0.43;0.30;;;32.20;99.90;;;;;;5058306;28;20444;-82
2021/06/18 08:43:05;;;;;;;0.40;0.30;;;32.10;99.90;;;;;;5058264;28;20956;-79
2021/06/18 08:45:33;;;;;;;0.40;0.30;;;32.30;99.90;;;;;;5057437;28;20567;-80
2021/06/18 08:48:00;;;;;;;0.50;0.30;;;32.20;99.90;;;;;;5062631;28;20473;-82
2021/06/18 08:50:27;;;;;;;0.40;0.30;;;32.50;99.90;;;;;;5059732;28;20449;-81
2021/06/18 08:52:58;;;;;;;1.00;1.00;;;32.50;99.90;;;;;;5057682;28;20513;-81
2021/06/18 08:55:27;;;;;;;0.40;0.30;;;32.60;99.90;;;;;;5057983;28;20480;-82
2021/06/18 08:57:58;;;;;;;0.40;0.30;;;32.50;99.90;;;;;;5058799;28;20445;-83
2021/06/18 09:00:26;;;;;;;0.43;0.30;;;32.40;99.90;;;;;;5059894;28;20429;-82
2021/06/18 09:02:53;;;;;;;0.50;0.30;;;32.00;99.90;;;;;;5058122;28;20842;-83
2021/06/18 09:05:21;;;;;;;0.50;0.30;;;31.80;99.90;;;;;;5058723;28;21003;-83
2021/06/18 09:08:00;;;;;;;0.50;0.30;;;31.50;99.90;;;;;;5058287;28;20541;-82
2021/06/18 09:10:36;;;;;;;0.50;0.30;;;31.20;99.90;;;;;;5059020;28;20436;-83
2021/06/18 09:13:14;;;;;;;0.50;0.30;;;30.90;99.90;;;;;;5058614;28;20420;-83
2021/06/18 09:15:44;;;;;;;0.50;0.30;;;30.60;99.90;;;;;;5055845;28;20457;-79
2021/06/18 09:18:30;;;;;;;0.50;0.30;;;30.20;99.90;;;;;;5060589;22;20515;-81
2021/06/18 09:21:14;;;;;;;4.93;0.83;;;30.10;99.90;;;;;;5013318;28;20435;-79
2021/06/18 09:23:44;;;;;;;0.50;0.30;;;30.00;99.90;;;;;;5010959;28;20809;-79
2021/06/18 09:26:21;;;;;;;0.50;0.30;;;30.00;99.90;;;;;;5015770;28;20545;-79
2021/06/18 09:29:03;;;;;;;0.50;0.30;;;29.90;99.90;;;;;;5015762;28;20484;-79
2021/06/18 09:31:32;;;;;;;0.50;0.47;;;30.30;99.90;;;;;;5016028;28;20450;-79
2021/06/18 09:33:59;;;;;;;0.50;0.30;;;31.20;99.90;;;;;;5007968;28;20474;-82
2021/06/18 09:36:26;;;;;;;0.50;0.30;;;31.60;99.90;;;;;;4994256;28;20513;-79
2021/06/18 09:38:56;;;;;;;0.50;0.30;;;31.40;99.90;;;;;;4995056;28;20494;-80
2021/06/18 09:41:34;;;;;;;0.40;0.30;;;31.20;99.90;;;;;;4995675;28;20450;-81
2021/06/18 09:44:02;;;;;;;0.50;0.40;;;31.30;99.90;;;;;;4995930;28;20435;-82
2021/06/18 09:46:50;;;;;;;0.50;0.30;;;31.60;99.90;;;;;;4994509;28;20486;-81
2021/06/18 09:49:39;;;;;;;0.50;0.33;;;31.90;99.90;;;;;;4995029;28;20459;-81
2021/06/18 09:52:08;;;;;;;0.50;0.30;;;31.90;99.90;;;;;;4995487;28;20471;-83
2021/06/18 09:54:41;;;;;;;0.50;0.30;;;31.90;99.90;;;;;;4996729;28;20435;-81
2021/06/18 09:57:10;;;;;;;0.47;0.30;;;31.80;99.90;;;;;;4993619;28;20876;-81
2021/06/18 09:59:48;;;;;;;13.30;12.70;;;31.80;99.90;;;;;;4998123;28;20458;-82
2021/06/18 10:02:15;;;;;;;0.50;0.30;;;31.90;99.90;;;;;;5000976;28;20526;-82
2021/06/18 10:04:42;;;;;;;0.40;0.30;;;32.20;99.90;;;;;;5003901;28;20941;-82
2021/06/18 10:07:09;;;;;;;0.50;0.30;;;32.40;99.90;;;;;;5001526;28;20494;-82
2021/06/18 10:09:38;;;;;;;0.60;0.50;;;32.40;99.90;;;;;;5000368;28;20460;-82
2021/06/18 10:12:06;;;;;;;0.50;0.30;;;32.60;99.90;;;;;;4999053;28;20444;-83
2021/06/18 10:14:33;;;;;;;0.50;0.30;;;32.80;99.90;;;;;;4999117;28;20864;-80
2021/06/18 10:17:00;;;;;;;0.40;0.30;;;33.20;99.90;;;;;;4999055;28;20818;-82
2021/06/18 10:19:27;;;;;;;0.40;0.30;;;33.40;99.90;;;;;;4999351;28;20518;-83
2021/06/18 10:21:57;;;;;;;13.33;1.63;;;33.70;99.90;;;;;;4999420;28;20833;-81
2021/06/18 10:24:27;;;;;;;0.60;0.50;;;33.90;99.90;;;;;;5000297;28;20424;-83
2021/06/18 10:26:57;;;;;;;0.47;0.37;;;33.70;99.90;;;;;;5004309;28;20836;-82
2021/06/18 10:29:32;;;;;;;0.50;0.30;;;33.50;98.90;;;;;;5010473;28;20968;-77
2021/06/18 10:32:18;;;;;;;0.50;0.30;;;32.70;99.90;;;;;;5018508;28;20484;-82
2021/06/18 10:34:46;;;;;;;0.40;0.30;;;32.80;99.80;;;;;;5014404;28;20435;-81
2021/06/18 10:37:21;;;;;;;0.50;0.40;;;32.80;99.90;;;;;;5009339;28;20464;-81
2021/06/18 10:39:52;;;;;;;0.40;0.30;;;32.80;95.10;;;;;;5017399;28;20447;-82
2021/06/18 10:42:19;;;;;;;0.40;0.30;;;33.00;93.10;;;;;;5017756;28;20857;-81
2021/06/18 10:44:48;;;;;;;0.50;0.40;;;33.50;93.80;;;;;;5018872;28;20454;-82
2021/06/18 10:47:57;;;;;;;0.40;0.40;;;33.30;93.10;;;;;;5017704;28;20528;-82
2021/06/18 10:50:50;;;;;;;0.60;0.60;;;33.10;91.40;;;;;;5017718;28;20434;-82
2021/06/18 10:53:22;;;;;;;0.40;0.30;;;33.40;92.40;;;;;;5017120;28;20482;-83
2021/06/18 10:55:50;;;;;;;0.43;0.30;;;34.10;91.00;;;;;;5018186;28;20583;-81
2021/06/18 10:58:17;;;;;;;0.40;0.30;;;34.70;86.20;;;;;;5017554;28;20462;-81
2021/06/18 11:00:44;;;;;;;1.07;1.07;;;35.00;83.70;;;;;;5017897;28;20537;-81
2021/06/18 11:03:13;;;;;;;0.40;0.30;;;34.80;77.60;;;;;;5017487;28;20473;-82
2021/06/18 11:05:41;;;;;;;0.40;0.30;;;34.20;78.70;;;;;;5009467;28;20930;-82
2021/06/18 11:08:31;;;;;;;1.27;1.17;;;34.00;76.20;;;;;;5004017;28;21000;-81
2021/06/18 11:10:58;;;;;;;0.60;0.50;;;34.00;79.00;;;;;;4996875;28;20432;-82
2021/06/18 11:13:26;;;;;;;0.43;0.30;;;34.00;81.60;;;;;;4995883;28;20506;-83
2021/06/18 11:15:53;;;;;;;0.40;0.30;;;34.00;78.10;;;;;;4996781;28;21148;-81
2021/06/18 11:18:32;;;;;;;1.33;1.23;;;33.80;82.30;;;;;;4997262;28;20475;-83
2021/06/18 11:21:01;;;;;;;1.07;0.97;;;33.80;88.20;;;;;;5000664;28;20432;-82
2021/06/18 11:23:34;;;;;;;0.70;0.70;;;33.70;85.60;;;;;;4997939;28;20451;-83
2021/06/18 11:26:03;;;;;;;0.40;0.33;;;33.80;86.20;;;;;;4997770;28;20930;-81
2021/06/18 11:28:34;;;;;;;2.67;1.23;;;33.60;88.50;;;;;;4997082;28;20483;-80
2021/06/18 11:31:02;;;;;;;0.60;0.60;;;33.60;90.30;;;;;;4997444;28;20452;-83
2021/06/18 11:33:57;;;;;;;0.93;0.93;;;33.50;91.90;;;;;;4996491;28;20444;-82
2021/06/18 11:36:42;;;;;;;0.50;0.40;;;33.10;92.70;;;;;;4994623;28;20451;-81
2021/06/18 11:39:17;;;;;;;8.03;3.20;;;33.20;92.90;;;;;;5016881;28;20461;-82
2021/06/18 11:41:49;;;;;;;0.40;0.30;;;33.40;95.00;;;;;;5016821;28;20500;-79
2021/06/18 11:44:21;;;;;;;0.50;0.30;;;33.40;93.10;;;;;;5016155;28;20443;-81
2021/06/18 11:46:53;;;;;;;0.40;0.30;;;33.10;93.60;;;;;;5016190;28;20439;-82
2021/06/18 11:49:22;;;;;;;0.40;0.30;;;33.30;93.20;;;;;;5016218;28;20502;-82
2021/06/18 11:51:50;;;;;;;0.40;0.30;;;33.60;91.10;;;;;;5016916;28;21116;-81
2021/06/18 11:54:30;;;;;;;0.50;0.50;;;34.10;89.40;;;;;;5016006;28;20794;-83
2021/06/18 11:57:05;;;;;;;1.70;0.70;;;34.20;84.90;;;;;;5015359;28;20908;-83
2021/06/18 11:59:33;;;;;;;4.43;0.80;;;34.50;84.10;;;;;;5016965;28;20983;-82
2021/06/18 12:02:13;;;;;;;0.40;0.30;;;33.90;83.80;;;;;;5016358;28;20450;-81
2021/06/18 12:04:40;;;;;;;0.40;0.30;;;34.20;83.70;;;;;;5013051;28;20442;-82
2021/06/18 12:07:07;;;;;;;0.40;0.30;;;34.60;84.80;;;;;;4997218;28;20494;-82
2021/06/18 12:09:40;;;;;;;1.03;1.03;;;34.50;81.70;;;;;;4996553;28;20464;-82
2021/06/18 12:12:09;;;;;;;0.40;0.30;;;34.50;75.30;;;;;;5002596;28;20514;-84
2021/06/18 12:14:37;;;;;;;0.50;0.50;;;34.70;79.20;;;;;;5008599;28;20530;-81
2021/06/18 12:17:04;;;;;;;4.80;1.23;;;34.80;76.90;;;;;;5015783;28;20439;-81
2021/06/18 12:19:32;;;;;;;0.43;0.40;;;34.90;77.50;;;;;;5015787;28;20506;-80
2021/06/18 12:22:01;;;;;;;0.40;0.30;;;35.50;76.30;;;;;;5015810;28;20465;-81
2021/06/18 12:24:34;;;;;;;0.40;0.30;;;36.60;73.60;;;;;;5015725;28;20497;-81
2021/06/18 12:27:04;;;;;;;1.73;1.63;;;37.40;72.60;;;;;;5015070;28;20530;-82
2021/06/18 12:29:31;;;;;;;0.40;0.30;;;37.30;68.00;;;;;;5016042;28;20463;-80
2021/06/18 12:32:00;;;;;;;0.40;0.30;;;38.00;68.60;;;;;;5015153;28;20493;-82
2021/06/18 12:34:27;;;;;;;1.43;1.33;;;37.90;65.50;;;;;;5010959;28;20442;-81
2021/06/18 12:37:02;;;;;;;0.40;0.30;;;37.40;62.30;;;;;;5005799;28;20443;-79
2021/06/18 12:39:29;;;;;;;0.40;0.30;;;36.80;65.70;;;;;;5013913;28;20481;-80
2021/06/18 12:41:56;;;;;;;0.40;0.30;;;38.30;65.50;;;;;;5014263;28;20445;-78
2021/06/18 12:44:33;;;;;;;0.40;0.40;;;39.50;63.40;;;;;;5014474;28;20849;-82
2021/06/18 12:47:04;;;;;;;0.40;0.30;;;40.60;57.50;;;;;;5015223;28;20448;-80
2021/06/18 12:49:31;;;;;;;0.40;0.30;;;40.90;55.00;;;;;;5015547;28;20463;-80
2021/06/18 12:52:13;;;;;;;0.40;0.30;;;40.40;55.20;;;;;;4992696;28;20934;-82
2021/06/18 12:54:41;;;;;;;1.70;1.37;;;41.30;55.30;;;;;;4988787;28;20466;-80
2021/06/18 12:57:23;;;;;;;0.40;0.30;;;41.40;53.00;;;;;;4992974;28;20452;-81